createdAt,value
2018-05-26T00:02:40.904Z,65.49
2018-05-26T00:07:41.876Z,66.33
2018-05-26T00:12:42.827Z,68.23
2018-05-26T00:17:43.792Z,68.67
2018-05-26T00:22:50.937Z,68.48
2018-05-26T00:27:51.912Z,68.60
2018-05-26T00:32:52.891Z,69.01
2018-05-26T00:37:53.844Z,70.11
2018-05-26T00:42:54.839Z,70.43
2018-05-26T00:47:55.788Z,70.43
2018-05-26T00:52:56.770Z,70.50
2018-05-26T00:57:57.745Z,70.20
2018-05-26T01:02:58.709Z,69.66
2018-05-26T01:07:59.687Z,69.43
2018-05-26T01:13:00.628Z,69.07
2018-05-26T01:18:01.585Z,69.83
2018-05-26T01:23:02.576Z,70.14
2018-05-26T01:28:03.534Z,70.15
2018-05-26T01:33:04.504Z,70.40
2018-05-26T01:38:05.455Z,70.62
2018-05-26T01:43:06.436Z,70.40
2018-05-26T01:48:07.386Z,71.45
2018-05-26T01:53:08.327Z,71.84
2018-05-26T01:58:09.287Z,71.50
2018-05-26T02:03:10.231Z,71.62
2018-05-26T02:08:11.171Z,70.82
2018-05-26T02:13:12.144Z,70.55
2018-05-26T02:18:13.100Z,70.04
2018-05-26T02:23:14.085Z,70.03
2018-05-26T02:28:15.038Z,70.34
2018-05-26T02:33:15.992Z,70.24
2018-05-26T02:38:16.941Z,70.73
2018-05-26T02:43:17.942Z,70.75
2018-05-26T02:48:18.901Z,70.32
2018-05-26T02:53:19.846Z,70.25
2018-05-26T02:58:20.815Z,70.65
2018-05-26T03:03:21.778Z,70.87
2018-05-26T03:08:28.848Z,71.03
2018-05-26T03:13:35.906Z,71.26
2018-05-26T03:18:36.907Z,71.46
2018-05-26T03:23:37.836Z,71.19
2018-05-26T03:28:38.801Z,70.88
2018-05-26T03:33:39.782Z,71.33
2018-05-26T03:38:40.726Z,71.60
2018-05-26T03:43:41.703Z,71.12
2018-05-26T03:48:42.680Z,70.94
2018-05-26T03:53:43.639Z,71.51
2018-05-26T03:58:56.856Z,71.89
2018-05-26T04:03:57.803Z,71.79
2018-05-26T04:08:58.761Z,71.62
2018-05-26T04:13:59.733Z,71.45
2018-05-26T04:19:00.702Z,71.62
2018-05-26T04:24:01.653Z,71.53
2018-05-26T04:29:02.584Z,70.95
2018-05-26T04:34:03.564Z,70.81
2018-05-26T04:39:04.524Z,70.27
2018-05-26T04:44:05.517Z,70.20
2018-05-26T04:49:06.489Z,70.00
2018-05-26T04:54:07.457Z,69.96
2018-05-26T04:59:08.400Z,70.29
2018-05-26T05:04:09.347Z,70.31
2018-05-26T05:09:10.320Z,69.93
2018-05-26T05:14:11.293Z,69.93
2018-05-26T05:19:12.244Z,69.60
2018-05-26T05:24:13.200Z,70.01
2018-05-26T05:29:14.159Z,70.58
2018-05-26T05:34:15.163Z,70.59
2018-05-26T05:39:16.112Z,69.91
2018-05-26T05:44:17.099Z,70.29
2018-05-26T05:49:18.050Z,70.11
2018-05-26T05:54:19.008Z,69.73
2018-05-26T05:59:19.950Z,68.80
2018-05-26T06:04:20.895Z,68.82
2018-05-26T06:09:21.864Z,68.64
2018-05-26T06:14:22.808Z,68.23
2018-05-26T06:19:23.807Z,67.89
2018-05-26T06:24:24.736Z,67.71
2018-05-26T06:29:25.703Z,67.88
2018-05-26T06:34:26.697Z,66.58
2018-05-26T06:39:27.663Z,66.47
2018-05-26T06:44:28.661Z,65.33
2018-05-26T06:49:29.618Z,65.04
2018-05-26T06:54:30.575Z,64.33
2018-05-26T06:59:31.551Z,63.82
2018-05-26T07:04:32.524Z,63.14
2018-05-26T07:09:33.490Z,63.00
2018-05-26T07:14:34.436Z,62.81
2018-05-26T07:19:35.399Z,62.06
2018-05-26T07:24:36.385Z,61.08
2018-05-26T07:29:37.399Z,61.30
2018-05-26T07:34:38.387Z,61.56
2018-05-26T07:39:39.374Z,61.57
2018-05-26T07:44:40.394Z,61.82
2018-05-26T07:49:41.399Z,61.80
2018-05-26T07:54:42.366Z,61.91
2018-05-26T07:59:43.368Z,61.90
2018-05-26T08:04:44.344Z,62.49
2018-05-26T08:09:45.316Z,61.94
2018-05-26T08:14:46.316Z,60.63
2018-05-26T08:19:47.317Z,61.20
2018-05-26T08:24:48.299Z,61.52
2018-05-26T08:29:49.283Z,60.80
2018-05-26T08:34:50.264Z,60.33
2018-05-26T08:39:51.225Z,60.30
2018-05-26T08:44:52.242Z,61.38
2018-05-26T08:49:53.195Z,60.42
2018-05-26T08:54:54.254Z,60.16
2018-05-26T08:59:55.205Z,59.16
2018-05-26T09:04:56.162Z,57.96
2018-05-26T09:09:57.125Z,58.18
2018-05-26T09:14:58.102Z,58.34
2018-05-26T09:19:59.107Z,57.67
2018-05-26T09:25:00.104Z,58.24
2018-05-26T09:30:01.103Z,57.85
2018-05-26T09:35:02.131Z,58.04
2018-05-26T09:40:03.133Z,56.29
2018-05-26T09:45:04.181Z,57.10
2018-05-26T09:50:05.171Z,56.36
2018-05-26T09:55:06.131Z,56.16
2018-05-26T10:00:07.115Z,54.94
2018-05-26T10:05:08.110Z,56.12
2018-05-26T10:10:09.079Z,53.97
2018-05-26T10:15:10.066Z,53.03
2018-05-26T10:20:11.035Z,54.37
2018-05-26T10:25:12.029Z,55.05
2018-05-26T10:30:13.018Z,55.57
2018-05-26T10:35:13.997Z,55.78
2018-05-26T10:40:14.994Z,56.04
2018-05-26T10:45:16.052Z,54.08
2018-05-26T10:50:17.044Z,53.40
2018-05-26T10:55:17.983Z,52.68
2018-05-26T11:00:18.950Z,53.20
2018-05-26T11:05:19.919Z,50.68
2018-05-26T11:10:20.909Z,51.30
2018-05-26T11:15:21.901Z,51.13
2018-05-26T11:20:22.923Z,51.01
2018-05-26T11:30:31.592Z,48.93
2018-05-26T11:35:32.593Z,49.00
2018-05-26T11:40:33.558Z,46.49
2018-05-26T11:45:34.573Z,46.43
2018-05-26T11:50:35.559Z,43.30
2018-05-26T11:55:36.510Z,45.70
2018-05-26T12:00:37.473Z,43.11
2018-05-26T12:05:38.453Z,41.91
2018-05-26T12:10:39.414Z,42.41
2018-05-26T12:15:40.371Z,41.94
2018-05-26T12:20:41.364Z,40.79
2018-05-26T12:25:42.400Z,42.16
2018-05-26T12:30:43.339Z,41.61
2018-05-26T12:35:44.359Z,40.85
2018-05-26T12:40:45.343Z,40.67
2018-05-26T12:45:46.466Z,40.50
2018-05-26T12:50:48.324Z,39.37
2018-05-26T12:55:49.308Z,40.89
2018-05-26T13:00:50.281Z,40.15
2018-05-26T13:05:51.265Z,40.43
2018-05-26T13:10:52.244Z,39.49
2018-05-26T13:15:53.214Z,39.87
2018-05-26T13:20:54.211Z,39.51
2018-05-26T13:25:55.172Z,39.36
2018-05-26T13:30:56.128Z,39.86
2018-05-26T13:35:57.127Z,38.48
2018-05-26T13:40:58.119Z,38.28
2018-05-26T13:45:59.159Z,38.02
2018-05-26T13:51:00.186Z,36.90
2018-05-26T13:56:01.203Z,38.72
2018-05-26T14:01:02.204Z,36.57
2018-05-26T14:06:03.194Z,37.13
2018-05-26T14:11:04.179Z,36.56
2018-05-26T14:16:05.191Z,38.66
2018-05-26T14:21:06.190Z,38.61
2018-05-26T14:26:07.184Z,37.18
2018-05-26T14:31:08.161Z,36.24
2018-05-26T14:36:11.859Z,35.63
2018-05-26T14:41:12.868Z,34.95
2018-05-26T14:46:13.890Z,35.28
2018-05-26T14:51:14.826Z,35.07
2018-05-26T14:56:15.789Z,34.32
2018-05-26T15:01:16.766Z,34.18
2018-05-26T15:06:17.738Z,33.84
2018-05-26T15:11:18.725Z,34.88
2018-05-26T15:16:19.714Z,35.44
2018-05-26T15:21:20.671Z,35.69
2018-05-26T15:26:21.661Z,35.88
2018-05-26T15:31:22.623Z,35.76
2018-05-26T15:36:23.651Z,34.92
2018-05-26T15:41:24.644Z,35.79
2018-05-26T15:46:25.671Z,34.51
2018-05-26T15:51:26.672Z,34.90
2018-05-26T15:56:27.659Z,36.81
2018-05-26T16:01:28.656Z,35.98
2018-05-26T16:06:29.648Z,36.49
2018-05-26T16:11:30.655Z,37.18
2018-05-26T16:16:31.622Z,37.80
2018-05-26T16:21:32.649Z,38.12
2018-05-26T16:26:33.615Z,37.46
2018-05-26T16:31:34.578Z,36.93
2018-05-26T16:36:35.578Z,36.57
2018-05-26T16:41:36.583Z,37.70
2018-05-26T16:46:37.616Z,37.70
2018-05-26T16:51:38.692Z,38.19
2018-05-26T16:56:39.671Z,39.14
2018-05-26T17:01:40.673Z,37.86
2018-05-26T17:06:41.671Z,38.08
2018-05-26T17:11:42.744Z,38.42
2018-05-26T17:16:43.775Z,39.07
2018-05-26T17:21:44.785Z,39.45
2018-05-26T17:26:45.763Z,40.25
2018-05-26T17:31:46.720Z,41.60
2018-05-26T17:36:47.740Z,43.56
2018-05-26T17:41:48.761Z,43.71
2018-05-26T17:46:49.867Z,42.57
2018-05-26T17:51:50.843Z,42.64
2018-05-26T17:56:51.867Z,42.61
2018-05-26T18:01:52.858Z,42.93
2018-05-26T18:06:53.863Z,43.94
2018-05-26T18:11:54.821Z,44.91
2018-05-26T18:16:55.786Z,45.75
2018-05-26T18:21:56.807Z,47.64
2018-05-26T18:26:57.787Z,48.30
2018-05-26T18:31:59.000Z,48.62
2018-05-26T18:37:00.014Z,48.86
2018-05-26T18:42:01.006Z,49.41
2018-05-26T18:47:02.018Z,50.70
2018-05-26T18:52:03.013Z,50.95
2018-05-26T18:57:04.015Z,51.17
2018-05-26T19:02:04.996Z,51.59
2018-05-26T19:07:05.992Z,51.62
2018-05-26T19:12:06.967Z,52.10
2018-05-26T19:17:07.957Z,52.59
2018-05-26T19:22:08.914Z,52.36
2018-05-26T19:27:09.936Z,52.02
2018-05-26T19:32:17.805Z,52.01
2018-05-26T19:37:18.873Z,51.65
2018-05-26T19:42:19.872Z,51.75
2018-05-26T19:47:20.903Z,51.75
2018-05-26T19:52:21.908Z,52.28
2018-05-26T19:57:22.926Z,52.37
2018-05-26T20:02:23.896Z,52.15
2018-05-26T20:07:24.915Z,52.26
2018-05-26T20:12:25.908Z,53.86
2018-05-26T20:17:26.925Z,55.14
2018-05-26T20:22:27.921Z,56.05
2018-05-26T20:27:28.924Z,56.39
2018-05-26T20:32:29.932Z,56.76
2018-05-26T20:37:30.941Z,57.52
2018-05-26T20:42:31.918Z,57.75
2018-05-26T20:47:32.956Z,58.54
2018-05-26T20:52:33.931Z,58.84
2018-05-26T20:57:34.892Z,58.81
2018-05-26T21:02:35.874Z,59.31
2018-05-26T21:07:36.884Z,58.94
2018-05-26T21:12:37.986Z,58.69
2018-05-26T21:17:39.049Z,57.45
2018-05-26T21:22:40.040Z,57.20
2018-05-26T21:27:41.085Z,57.35
2018-05-26T21:32:42.029Z,57.35
2018-05-26T21:37:43.040Z,57.63
2018-05-26T21:42:44.041Z,57.62
2018-05-26T21:47:45.096Z,57.52
2018-05-26T21:52:46.075Z,57.83
2018-05-26T21:57:47.078Z,58.14
2018-05-26T22:02:48.064Z,58.23
2018-05-26T22:07:49.069Z,58.65
2018-05-26T22:12:50.023Z,58.97
2018-05-26T22:17:51.007Z,59.50
2018-05-26T22:22:51.953Z,59.56
2018-05-26T22:27:52.924Z,59.77
2018-05-26T22:32:53.903Z,59.96
2018-05-26T22:37:54.887Z,60.34
2018-05-26T22:42:55.870Z,60.69
2018-05-26T22:47:56.864Z,61.15
2018-05-26T22:52:57.828Z,61.47
2018-05-26T22:57:58.824Z,61.54
2018-05-26T23:02:59.801Z,61.71
2018-05-26T23:08:00.893Z,61.74
2018-05-26T23:13:01.960Z,61.60
2018-05-26T23:18:03.239Z,61.67
2018-05-26T23:23:05.009Z,61.90
2018-05-26T23:28:05.977Z,62.58
2018-05-26T23:33:06.965Z,63.13
2018-05-26T23:38:07.932Z,63.74
2018-05-26T23:43:08.911Z,64.41
2018-05-26T23:48:09.933Z,65.23
2018-05-26T23:53:10.924Z,65.77
2018-05-26T23:58:11.904Z,66.23
